Sugar Grove, Ohio
Current Conditions -  °F | °C
As of 12:53 AM on Sunday 21 Dec 2014 (Local Time) from KLHQ Reporting Station
Haze Haze  
Wind Chill: 38°   Ceiling: 2200
Heat Index: 38°   Visibility: 5mi
Dew Point: 26°   Wind: 0mph
Humidity: 62%   Direction: NA
Pressure: 30.28"   Gusts: NA
Location:  39.63°N, 82.55°W
Report Text: KLHQ 210553Z AUTO 00000KT 5SM HZ OVC022 03/M03 A3028 RMK AO2 SLP261 T00331033 10061 20011 56004
Loading
Personal Weather Stations






























Interactive Weather Map New forecast layout! Learn more

10-Day Weather Forecast

Advertisements
Track Severe Weather on mobile